Time;durP1;ratioP1;P1;durP2;ratioP2;P2;SDS_P1;SDS_P2;PMS_P1;PMS_P2;Temp;Humidity;BMP_temperature;BMP_pressure;BME280_temperature;BME280_humidity;BME280_pressure;Samples;Min_cycle;Max_cycle;Signal;HPM_P1;HPM_P2
2022/12/11 00:00:05;;;;;;;26.88;9.32;;;;;;;1.00;86.57;98649.16;4978153;28;20053;-68
2022/12/11 00:02:30;;;;;;;9.52;6.93;;;;;;;1.02;86.90;98652.50;4980407;28;20079;-67
2022/12/11 00:04:54;;;;;;;10.57;7.55;;;;;;;1.01;86.55;98645.59;4957073;28;20073;-66
2022/12/11 00:07:19;;;;;;;11.68;7.68;;;;;;;1.02;86.46;98647.28;4974898;28;20094;-73
2022/12/11 00:09:44;;;;;;;15.45;7.22;;;;;;;1.02;86.82;98644.66;4995319;28;20049;-71
2022/12/11 00:12:08;;;;;;;12.10;7.53;;;;;;;1.02;87.08;98636.78;4996603;28;20071;-72
2022/12/11 00:14:33;;;;;;;13.90;7.47;;;;;;;1.01;86.86;98632.47;4996978;28;20103;-72
2022/12/11 00:16:58;;;;;;;13.23;8.48;;;;;;;1.02;86.65;98649.03;4995514;28;20510;-72
2022/12/11 00:19:22;;;;;;;14.45;8.50;;;;;;;0.99;86.85;98642.19;4995119;28;20511;-72
2022/12/11 00:21:47;;;;;;;13.07;7.97;;;;;;;1.01;86.78;98644.75;4974263;28;20599;-74
2022/12/11 00:24:12;;;;;;;12.18;7.72;;;;;;;1.03;86.83;98638.47;4977169;28;20037;-74
2022/12/11 00:26:37;;;;;;;14.63;8.05;;;;;;;1.02;86.90;98635.91;4996465;28;20045;-76
2022/12/11 00:29:03;;;;;;;12.27;7.75;;;;;;;1.02;87.20;98635.91;4979498;28;20049;-75
2022/12/11 00:31:28;;;;;;;11.27;8.20;;;;;;;1.00;86.99;98643.03;4976247;28;20087;-76
2022/12/11 00:33:52;;;;;;;12.48;8.68;;;;;;;1.01;87.17;98642.97;4975179;28;20052;-76
2022/12/11 00:36:20;;;;;;;14.63;8.85;;;;;;;1.02;86.95;98639.41;4979695;28;20455;-77
2022/12/11 00:38:45;;;;;;;11.75;8.43;;;;;;;1.02;86.94;98642.03;4960108;28;20041;-75
2022/12/11 00:41:11;;;;;;;10.93;7.75;;;;;;;1.03;87.11;98633.22;4943980;28;20041;-72
2022/12/11 00:43:36;;;;;;;12.43;8.05;;;;;;;1.04;87.00;98645.41;4994731;28;20048;-72
2022/12/11 00:46:01;;;;;;;12.18;8.10;;;;;;;1.03;86.86;98641.09;4996884;28;20045;-72
2022/12/11 00:48:25;;;;;;;13.30;8.20;;;;;;;1.03;86.91;98637.63;4998779;28;20076;-72
2022/12/11 00:50:50;;;;;;;13.90;8.52;;;;;;;1.04;87.22;98649.81;4980748;28;20041;-72
2022/12/11 00:53:14;;;;;;;13.80;8.20;;;;;;;1.06;86.64;98650.59;4998695;28;20491;-72
2022/12/11 00:55:40;;;;;;;13.88;8.30;;;;;;;1.08;86.79;98647.00;4980681;28;20083;-71
2022/12/11 00:58:05;;;;;;;13.88;8.75;;;;;;;1.07;87.02;98650.53;4967180;28;20500;-73
2022/12/11 01:00:30;;;;;;;15.07;8.55;;;;;;;1.09;86.82;98647.84;4978002;28;20788;-74
2022/12/11 01:02:54;;;;;;;13.23;8.48;;;;;;;1.08;86.80;98657.47;4974707;28;20073;-73
2022/12/11 01:05:19;;;;;;;14.00;8.30;;;;;;;1.09;87.23;98666.22;5001229;28;20077;-74
2022/12/11 01:07:44;;;;;;;15.30;8.77;;;;;;;1.12;86.78;98670.47;4973482;28;20538;-72
2022/12/11 01:10:22;;;;;;;15.40;8.48;;;;;;;1.13;86.83;98680.03;4999128;28;20045;-82
2022/12/11 01:12:47;;;;;;;12.65;7.68;;;;;;;1.14;86.64;98665.97;4977364;28;20523;-75
2022/12/11 01:15:12;;;;;;;14.55;8.65;;;;;;;1.16;86.86;98666.75;4977017;28;20512;-75
2022/12/11 01:17:36;;;;;;;15.40;7.80;;;;;;;1.15;87.21;98665.91;4995016;28;20037;-76
2022/12/11 01:20:03;;;;;;;14.25;7.57;;;;;;;1.16;87.10;98659.72;4968812;28;20037;-76
2022/12/11 01:22:27;;;;;;;13.43;7.65;;;;;;;1.15;86.67;98662.41;4980877;28;20091;-76
2022/12/11 01:24:52;;;;;;;12.00;7.68;;;;;;;1.15;87.16;98665.91;4986402;28;20045;-77
2022/12/11 01:27:17;;;;;;;13.15;7.90;;;;;;;1.16;86.83;98664.13;4979340;28;20042;-76
2022/12/11 01:29:41;;;;;;;11.93;7.95;;;;;;;1.16;86.65;98654.47;4979845;28;20049;-76
2022/12/11 01:32:06;;;;;;;21.00;9.18;;;;;;;1.17;87.06;98655.31;4966724;28;20457;-76
2022/12/11 01:34:32;;;;;;;15.32;9.13;;;;;;;1.18;86.62;98662.28;4963144;28;20041;-75
2022/12/11 01:36:57;;;;;;;12.20;7.93;;;;;;;1.18;86.56;98652.63;4984686;28;20045;-77
2022/12/11 01:39:21;;;;;;;13.95;8.50;;;;;;;1.17;86.96;98648.31;4992032;28;20030;-75
2022/12/11 01:41:46;;;;;;;16.08;9.07;;;;;;;1.19;86.87;98656.09;4986730;28;20363;-74
2022/12/11 01:44:13;;;;;;;18.98;10.13;;;;;;;1.20;87.15;98660.44;4962698;28;20038;-75
2022/12/11 01:46:38;;;;;;;16.42;9.25;;;;;;;1.18;86.53;98657.88;4988866;28;20128;-74
2022/12/11 01:49:07;;;;;;;18.70;11.30;;;;;;;1.18;87.00;98664.91;4984168;28;20172;-76
2022/12/11 01:51:39;;;;;;;15.98;9.77;;;;;;;1.19;86.57;98664.84;4981260;28;20091;-75
2022/12/11 01:54:07;;;;;;;17.42;9.77;;;;;;;1.18;86.62;98655.25;4981049;28;20038;-76
2022/12/11 01:56:36;;;;;;;13.68;8.88;;;;;;;1.17;86.71;98661.44;4948493;28;20042;-76
2022/12/11 01:59:06;;;;;;;13.80;8.75;;;;;;;1.17;87.03;98664.03;4982437;28;20033;-76
2022/12/11 02:01:33;;;;;;;15.77;9.27;;;;;;;1.16;86.57;98670.22;4986687;28;20046;-68
2022/12/11 02:03:58;;;;;;;15.27;8.90;;;;;;;1.15;86.93;98665.91;4977917;28;20117;-69
2022/12/11 02:06:45;;;;;;;18.02;10.35;;;;;;;1.23;87.08;98666.38;4969505;28;20141;-71
2022/12/11 02:09:17;;;;;;;19.58;11.10;;;;;;;1.21;86.97;98672.63;4999383;28;20037;-70
2022/12/11 02:12:07;;;;;;;19.58;11.23;;;;;;;1.22;87.01;98669.09;4999642;28;20607;-76
2022/12/11 02:14:54;;;;;;;17.52;10.82;;;;;;;1.26;86.72;98670.63;4998385;28;20056;-73
2022/12/11 02:17:28;;;;;;;21.65;11.68;;;;;;;1.22;86.65;98671.72;4997586;28;20080;-71
2022/12/11 02:20:16;;;;;;;16.83;11.05;;;;;;;1.26;86.79;98681.13;4998280;28;20037;-73
2022/12/11 02:23:09;;;;;;;20.52;11.68;;;;;;;1.26;87.17;98697.72;4965586;28;20065;-72
2022/12/11 02:25:53;;;;;;;16.75;10.40;;;;;;;1.23;86.49;98702.28;4999886;28;20049;-71
2022/12/11 02:28:32;;;;;;;16.92;10.55;;;;;;;1.23;86.69;98703.16;4982831;28;20044;-70
2022/12/11 02:31:13;;;;;;;17.65;11.35;;;;;;;1.26;86.67;98707.38;4980583;28;20114;-67
2022/12/11 02:33:54;;;;;;;22.45;13.00;;;;;;;1.20;86.38;98708.53;4976436;28;20034;-67
2022/12/11 02:36:22;;;;;;;17.67;11.20;;;;;;;1.20;86.75;98711.16;4988285;28;20580;-69
2022/12/11 02:38:50;;;;;;;17.15;11.05;;;;;;;1.20;86.72;98710.31;4996308;28;20502;-67
2022/12/11 02:41:18;;;;;;;15.63;9.80;;;;;;;1.19;86.74;98714.72;4997223;28;20094;-66
2022/12/11 02:43:44;;;;;;;20.52;9.70;;;;;;;1.20;86.60;98715.56;4968896;28;20037;-67
2022/12/11 02:46:11;;;;;;;22.00;11.25;;;;;;;1.19;86.65;98717.34;4996836;28;20136;-70
2022/12/11 02:48:36;;;;;;;20.92;10.77;;;;;;;1.18;86.85;98709.53;4962480;28;20041;-73
2022/12/11 02:51:04;;;;;;;18.67;10.88;;;;;;;1.17;86.54;98707.81;4943166;28;20041;-71
2022/12/11 02:53:31;;;;;;;23.58;11.63;;;;;;;1.15;86.71;98709.66;4968052;28;20053;-70
2022/12/11 02:56:11;;;;;;;20.73;10.75;;;;;;;1.16;86.82;98719.25;4960780;28;20045;-65
2022/12/11 02:58:42;;;;;;;20.90;11.48;;;;;;;1.14;86.64;98719.31;4973773;28;20049;-66
2022/12/11 03:01:10;;;;;;;20.58;11.30;;;;;;;1.12;86.63;98730.84;4995232;28;20079;-65
2022/12/11 03:03:34;;;;;;;18.23;9.80;;;;;;;1.12;86.47;98736.09;4978350;28;20052;-66
2022/12/11 03:05:59;;;;;;;20.75;11.02;;;;;;;1.12;86.57;98738.72;4996418;28;20057;-65
2022/12/11 03:08:24;;;;;;;26.05;12.00;;;;;;;1.12;86.71;98746.59;4978499;28;20092;-73
2022/12/11 03:10:48;;;;;;;18.00;11.80;;;;;;;1.14;86.67;98744.72;4993681;28;20046;-74
2022/12/11 03:13:18;;;;;;;18.10;9.68;;;;;;;1.15;86.60;98738.53;4978784;28;20034;-74
2022/12/11 03:16:01;;;;;;;20.65;10.23;;;;;;;1.14;86.82;98735.06;4992340;28;20091;-73
2022/12/11 03:18:26;;;;;;;17.05;10.45;;;;;;;1.16;86.51;98748.13;4996776;28;20033;-73
2022/12/11 03:21:03;;;;;;;19.10;10.02;;;;;;;1.19;86.77;98742.72;4998180;28;20053;-74
2022/12/11 03:23:43;;;;;;;16.23;9.73;;;;;;;1.20;86.92;98747.91;4980169;28;20331;-73
2022/12/11 03:26:12;;;;;;;20.13;10.38;;;;;;;1.19;86.51;98753.22;4972541;28;20636;-73
2022/12/11 03:28:48;;;;;;;22.23;9.35;;;;;;;1.21;86.95;98752.25;4994682;28;20084;-73
2022/12/11 03:31:21;;;;;;;25.58;12.68;;;;;;;1.17;86.85;98755.06;4966522;28;20493;-74
2022/12/11 03:33:51;;;;;;;21.57;12.10;;;;;;;1.12;86.44;98759.72;4996716;28;20037;-73
2022/12/11 03:36:29;;;;;;;22.27;11.13;;;;;;;1.11;86.53;98755.38;4977703;28;20132;-74
2022/12/11 03:38:59;;;;;;;17.17;10.50;;;;;;;1.09;86.22;98764.16;4986078;28;20068;-73
2022/12/11 03:41:26;;;;;;;18.90;10.40;;;;;;;1.09;86.49;98774.66;4997717;28;20470;-74
2022/12/11 03:43:55;;;;;;;21.80;10.85;;;;;;;1.10;86.79;98765.03;4998024;28;20519;-74
2022/12/11 03:46:23;;;;;;;21.38;11.43;;;;;;;1.13;86.61;98772.72;4982482;28;20048;-75
2022/12/11 03:48:49;;;;;;;25.63;11.32;;;;;;;1.13;86.50;98772.72;5002288;28;20034;-75
2022/12/11 03:51:16;;;;;;;17.77;9.73;;;;;;;1.13;86.49;98770.09;4984690;28;20060;-74
2022/12/11 03:53:42;;;;;;;19.40;9.98;;;;;;;1.15;86.35;98783.16;5001585;28;20045;-75
2022/12/11 03:56:09;;;;;;;16.95;9.55;;;;;;;1.15;86.86;98783.16;4986046;28;20037;-74
2022/12/11 03:58:34;;;;;;;19.20;9.98;;;;;;;1.13;86.61;98801.59;4999381;28;20089;-74
2022/12/11 04:00:59;;;;;;;19.20;11.43;;;;;;;1.12;86.42;98788.59;4998987;28;20077;-74
2022/12/11 04:03:23;;;;;;;16.58;9.85;;;;;;;1.13;86.54;98793.72;5000673;28;20041;-75
2022/12/11 04:05:50;;;;;;;19.02;9.30;;;;;;;1.13;86.40;98792.91;4981802;28;20129;-76
2022/12/11 04:08:16;;;;;;;14.60;7.95;;;;;;;1.14;86.33;98799.84;4961886;28;20070;-74
2022/12/11 04:10:41;;;;;;;18.52;10.95;;;;;;;1.10;86.39;98807.03;4995409;28;20042;-75
2022/12/11 04:13:07;;;;;;;16.27;8.02;;;;;;;1.09;86.60;98794.81;5001130;28;20492;-75
2022/12/11 04:15:32;;;;;;;14.55;9.00;;;;;;;1.07;86.31;98801.91;4981338;28;20038;-75
2022/12/11 04:26:08;;;;;;;21.67;10.45;;;;;;;1.10;86.11;98804.41;4999916;28;20124;-73
2022/12/11 04:28:35;;;;;;;16.10;9.02;;;;;;;1.11;86.53;98810.50;5000343;28;20075;-75
2022/12/11 04:30:59;;;;;;;16.02;8.93;;;;;;;1.06;86.35;98824.69;5000381;28;20180;-74
2022/12/11 04:33:24;;;;;;;17.17;10.27;;;;;;;1.04;86.11;98802.03;5000755;28;20101;-74
2022/12/11 04:35:49;;;;;;;18.40;10.27;;;;;;;1.02;86.21;98807.34;4964883;28;20037;-74
2022/12/11 04:38:13;;;;;;;19.75;12.18;;;;;;;1.00;86.58;98811.84;4974846;28;20155;-73
2022/12/11 04:40:38;;;;;;;18.83;9.85;;;;;;;0.99;86.19;98815.41;4968987;28;20050;-71
2022/12/11 04:43:02;;;;;;;19.85;10.40;;;;;;;0.97;85.89;98811.97;4975830;28;20145;-76
2022/12/11 04:45:27;;;;;;;12.95;8.27;;;;;;;0.94;85.94;98812.13;4987498;28;20066;-75
2022/12/11 04:47:52;;;;;;;14.18;8.88;;;;;;;0.94;85.98;98808.63;4977486;28;20083;-75
2022/12/11 04:50:16;;;;;;;13.23;8.23;;;;;;;0.94;86.09;98813.88;4995080;28;20041;-76
2022/12/11 04:52:41;;;;;;;16.63;8.65;;;;;;;0.93;86.34;98810.41;4977061;28;20045;-76
2022/12/11 04:55:07;;;;;;;15.52;9.70;;;;;;;0.91;86.29;98803.53;4995176;28;20049;-76
2022/12/11 04:57:32;;;;;;;16.90;10.02;;;;;;;0.89;86.17;98801.00;4994936;28;20068;-76
2022/12/11 04:59:56;;;;;;;16.63;9.52;;;;;;;0.85;85.98;98801.19;4993553;28;20056;-68
2022/12/11 05:02:21;;;;;;;19.52;10.15;;;;;;;0.81;85.74;98807.50;4973845;28;20038;-68
2022/12/11 05:04:46;;;;;;;14.75;9.63;;;;;;;0.80;86.12;98804.00;4956941;28;20033;-68
2022/12/11 05:07:10;;;;;;;18.35;9.70;;;;;;;0.78;86.27;98816.38;4958966;28;20094;-67
2022/12/11 05:09:35;;;;;;;18.70;9.90;;;;;;;0.74;86.27;98809.56;4991437;28;20046;-67
2022/12/11 05:12:00;;;;;;;14.85;8.73;;;;;;;0.72;86.39;98820.09;4994815;28;20048;-69
2022/12/11 05:14:26;;;;;;;18.90;9.43;;;;;;;0.72;86.13;98819.25;4994888;28;20571;-71
2022/12/11 05:16:50;;;;;;;24.80;10.13;;;;;;;0.72;86.08;98825.34;4996575;28;20042;-68
2022/12/11 05:19:15;;;;;;;18.85;9.43;;;;;;;0.74;86.32;98822.66;4996436;28;20064;-77
2022/12/11 05:21:40;;;;;;;19.52;10.15;;;;;;;0.75;86.10;98827.00;4963180;28;20049;-77
2022/12/11 05:24:05;;;;;;;19.45;10.00;;;;;;;0.75;86.57;98832.25;4997638;28;20056;-76
2022/12/11 05:26:29;;;;;;;16.35;8.88;;;;;;;0.77;86.54;98840.91;4995855;28;20055;-77
2022/12/11 05:28:55;;;;;;;18.67;9.02;;;;;;;0.80;86.20;98842.50;4995531;28;20041;-77
2022/12/11 05:31:22;;;;;;;16.25;8.85;;;;;;;0.81;86.33;98854.72;4996304;28;20638;-75
2022/12/11 05:33:49;;;;;;;22.17;10.32;;;;;;;0.81;86.13;98852.09;4998483;28;20108;-76
2022/12/11 05:36:21;;;;;;;19.85;10.93;;;;;;;0.84;86.55;98858.06;4997640;28;20068;-76
2022/12/11 05:38:45;;;;;;;22.80;11.50;;;;;;;0.84;86.07;98870.31;4964688;28;20045;-75
2022/12/11 05:41:15;;;;;;;21.30;11.43;;;;;;;0.85;85.82;98874.66;4979262;28;20042;-78
2022/12/11 05:43:39;;;;;;;19.50;10.27;;;;;;;0.82;86.13;98883.50;4973914;28;20147;-75
2022/12/11 05:46:13;;;;;;;21.25;10.70;;;;;;;0.86;86.13;98887.72;4981319;28;20037;-76
2022/12/11 05:48:39;;;;;;;18.85;10.40;;;;;;;0.85;86.09;98895.66;4998979;28;20243;-74
2022/12/11 05:51:04;;;;;;;22.40;9.68;;;;;;;0.84;85.59;98901.81;4998641;28;20048;-74
2022/12/11 05:53:29;;;;;;;16.20;9.48;;;;;;;0.83;86.02;98907.97;4998534;28;20451;-75
2022/12/11 05:56:04;;;;;;;19.35;10.45;;;;;;;0.86;86.09;98915.72;5002542;28;20030;-73
2022/12/11 05:58:29;;;;;;;19.40;10.00;;;;;;;0.85;85.57;98912.25;4983376;28;20053;-74
2022/12/11 06:00:53;;;;;;;20.20;10.25;;;;;;;0.86;85.58;98902.59;4978965;28;20042;-74
2022/12/11 06:03:18;;;;;;;20.70;11.40;;;;;;;0.83;85.82;98908.84;4996937;28;20041;-66
2022/12/11 06:05:43;;;;;;;21.60;11.63;;;;;;;0.86;85.77;98921.81;4979601;28;20507;-65
2022/12/11 06:08:07;;;;;;;18.17;10.45;;;;;;;0.86;85.86;98927.06;4997524;28;20042;-65
2022/12/11 06:10:32;;;;;;;16.98;10.00;;;;;;;0.86;85.47;98942.81;4997178;28;20492;-65
2022/12/11 06:12:57;;;;;;;16.58;9.55;;;;;;;0.87;85.59;98943.66;4977722;28;20073;-66
2022/12/11 06:15:22;;;;;;;16.00;9.80;;;;;;;0.84;85.29;98936.78;4975772;28;20055;-66
2022/12/11 06:17:46;;;;;;;17.63;10.52;;;;;;;0.86;85.43;98949.84;4969151;28;20048;-67
2022/12/11 06:20:11;;;;;;;16.88;9.98;;;;;;;0.87;85.00;98947.16;4977249;28;20057;-67
2022/12/11 06:22:36;;;;;;;24.85;10.35;;;;;;;0.88;85.33;98946.22;4959541;28;20037;-68
2022/12/11 06:25:00;;;;;;;19.08;10.10;;;;;;;0.88;85.17;98951.47;4972337;28;20041;-67
2022/12/11 06:27:25;;;;;;;23.30;13.93;;;;;;;0.89;85.16;98955.81;4976162;28;20044;-67
2022/12/11 06:29:49;;;;;;;21.00;10.85;;;;;;;0.91;85.26;98967.06;4987782;28;20828;-67
2022/12/11 06:32:14;;;;;;;23.58;10.93;;;;;;;0.93;84.87;98967.00;4995832;28;20500;-66
2022/12/11 06:34:38;;;;;;;23.88;11.40;;;;;;;0.94;85.22;98960.84;4996922;28;20422;-66
2022/12/11 06:37:03;;;;;;;18.77;10.02;;;;;;;0.92;85.16;98954.81;4996929;28;20418;-66
2022/12/11 06:39:28;;;;;;;20.45;10.55;;;;;;;0.92;84.88;98957.41;4995561;28;20064;-66
2022/12/11 06:41:53;;;;;;;21.25;11.90;;;;;;;0.93;84.60;98946.00;4978804;28;20056;-67
2022/12/11 06:44:17;;;;;;;21.88;11.10;;;;;;;0.90;84.76;98957.50;4996065;28;20124;-68
2022/12/11 06:46:42;;;;;;;19.48;9.82;;;;;;;0.89;84.70;98952.34;4959663;28;20144;-67
2022/12/11 06:49:06;;;;;;;18.60;11.80;;;;;;;0.89;84.37;98940.06;4960863;28;20045;-76
2022/12/11 06:51:31;;;;;;;20.58;11.05;;;;;;;0.89;84.75;98966.31;4997718;28;20096;-75
2022/12/11 06:53:56;;;;;;;20.33;12.40;;;;;;;0.86;84.31;98953.31;5000521;28;20045;-76
2022/12/11 06:56:22;;;;;;;16.98;10.38;;;;;;;0.85;84.67;98954.22;4968891;28;20065;-76
2022/12/11 06:58:46;;;;;;;24.83;11.50;;;;;;;0.82;84.68;98949.09;4980942;28;20484;-74
2022/12/11 07:01:20;;;;;;;20.85;11.40;;;;;;;0.86;84.29;98958.56;4951859;28;20068;-77
2022/12/11 07:03:46;;;;;;;21.05;11.77;;;;;;;0.80;84.33;98964.06;5003117;28;20049;-77
2022/12/11 07:06:11;;;;;;;25.73;11.93;;;;;;;0.82;84.68;98967.47;4982983;28;20057;-76
2022/12/11 07:08:35;;;;;;;22.73;12.27;;;;;;;0.83;84.22;98976.19;5002359;28;20044;-77
2022/12/11 07:11:09;;;;;;;24.85;11.07;;;;;;;0.86;84.76;98982.16;4999252;28;20049;-77
2022/12/11 07:13:34;;;;;;;20.15;9.98;;;;;;;0.83;84.05;98982.28;4999198;28;20041;-77
2022/12/11 07:16:00;;;;;;;27.25;11.38;;;;;;;0.83;84.62;98986.69;5003188;28;20045;-76
2022/12/11 07:18:25;;;;;;;20.55;11.95;;;;;;;0.83;84.34;98971.81;4999549;28;20045;-76
2022/12/11 07:20:50;;;;;;;22.77;12.52;;;;;;;0.78;84.33;98980.81;4997597;28;20051;-76
2022/12/11 07:23:15;;;;;;;24.63;12.30;;;;;;;0.74;84.42;98974.81;4977819;28;20034;-76
2022/12/11 07:25:39;;;;;;;26.30;13.00;;;;;;;0.70;83.99;98970.59;4997143;28;20041;-76
2022/12/11 07:28:04;;;;;;;23.88;11.90;;;;;;;0.67;84.13;98986.50;4999175;28;20045;-78
2022/12/11 07:30:29;;;;;;;22.85;11.85;;;;;;;0.68;83.88;98998.66;4998400;28;20140;-76
2022/12/11 07:32:54;;;;;;;26.15;11.98;;;;;;;0.72;84.19;98992.38;5005704;28;20037;-78
2022/12/11 07:35:19;;;;;;;18.40;11.52;;;;;;;0.75;84.28;99002.75;5005527;28;20053;-77
2022/12/11 07:37:44;;;;;;;24.55;13.75;;;;;;;0.78;84.63;98983.41;4970334;28;20073;-77
2022/12/11 07:40:10;;;;;;;26.20;13.32;;;;;;;0.78;84.36;98978.19;4967656;28;20061;-74
2022/12/11 07:42:34;;;;;;;22.58;11.63;;;;;;;0.77;84.10;98971.22;4978022;28;20018;-75
2022/12/11 07:44:59;;;;;;;23.17;13.00;;;;;;;0.76;83.99;98975.63;4999947;28;20049;-76
2022/12/11 07:47:25;;;;;;;26.80;13.35;;;;;;;0.75;83.91;98979.16;4998568;28;20045;-75
2022/12/11 07:49:49;;;;;;;24.85;11.98;;;;;;;0.75;83.98;98976.53;4983349;28;20049;-75
2022/12/11 07:52:14;;;;;;;30.75;12.80;;;;;;;0.73;84.13;98989.69;5017044;28;20575;-76
2022/12/11 07:54:39;;;;;;;28.80;13.60;;;;;;;0.74;83.58;99006.31;5015267;28;20053;-76
2022/12/11 07:57:03;;;;;;;22.52;13.32;;;;;;;0.73;83.42;99015.94;5016074;28;20100;-75
2022/12/11 07:59:28;;;;;;;22.30;13.10;;;;;;;0.74;83.70;99011.53;4982105;28;20041;-76
2022/12/11 08:01:52;;;;;;;24.70;13.52;;;;;;;0.76;83.92;99021.97;4983507;28;20029;-76
2022/12/11 08:04:17;;;;;;;25.88;14.07;;;;;;;0.74;83.77;99008.91;5002389;28;20040;-78
2022/12/11 08:06:42;;;;;;;24.58;13.20;;;;;;;0.76;83.40;99016.72;5000941;28;20045;-75
2022/12/11 08:09:09;;;;;;;25.67;14.35;;;;;;;0.75;83.72;99017.66;5007408;28;20527;-68
2022/12/11 08:11:34;;;;;;;34.17;17.02;;;;;;;0.70;83.44;99008.19;4999133;28;20041;-69
2022/12/11 08:14:00;;;;;;;26.48;13.95;;;;;;;0.71;83.64;99015.16;5001064;28;20459;-67
2022/12/11 08:16:25;;;;;;;29.67;14.57;;;;;;;0.73;83.42;99009.84;4997789;28;20755;-66
2022/12/11 08:18:50;;;;;;;32.05;16.50;;;;;;;0.75;83.67;99026.38;4979455;28;20048;-68
2022/12/11 08:21:17;;;;;;;27.55;15.75;;;;;;;0.76;83.47;99021.97;4996283;28;20068;-68
2022/12/11 08:23:43;;;;;;;33.35;15.57;;;;;;;0.78;83.67;99025.41;4997568;28;20135;-66
2022/12/11 08:26:12;;;;;;;28.58;15.60;;;;;;;0.81;83.37;99030.50;4976003;28;20080;-68
2022/12/11 08:28:37;;;;;;;29.80;16.00;;;;;;;0.80;83.31;99032.25;4955594;28;20427;-68
2022/12/11 08:31:08;;;;;;;28.15;15.35;;;;;;;0.84;83.70;99033.00;4996836;28;20044;-67
2022/12/11 08:33:35;;;;;;;26.63;15.27;;;;;;;0.85;83.33;99051.31;4995421;28;20052;-68
2022/12/11 08:36:04;;;;;;;30.17;16.05;;;;;;;0.89;82.84;99041.53;4997933;28;20065;-66
2022/12/11 08:38:29;;;;;;;23.42;13.77;;;;;;;0.89;82.95;99058.16;4996374;28;20155;-66
2022/12/11 08:40:53;;;;;;;24.85;15.32;;;;;;;0.92;82.90;99057.13;4979706;28;20093;-66
2022/12/11 08:43:18;;;;;;;26.25;15.18;;;;;;;0.94;82.91;99071.06;4995805;28;20128;-67
2022/12/11 08:45:44;;;;;;;27.58;15.32;;;;;;;0.95;83.03;99059.66;4997242;28;20123;-76
2022/12/11 08:48:08;;;;;;;26.52;15.18;;;;;;;0.94;83.23;99063.19;4963689;28;20123;-76
2022/12/11 08:50:33;;;;;;;28.23;17.23;;;;;;;0.92;82.53;99062.38;4962922;28;20064;-77
2022/12/11 08:52:58;;;;;;;31.38;16.15;;;;;;;0.94;82.63;99064.03;4984242;28;20499;-75
2022/12/11 08:55:23;;;;;;;23.52;15.07;;;;;;;0.97;82.98;99063.91;4986808;28;20044;-76
2022/12/11 08:57:48;;;;;;;26.10;15.52;;;;;;;0.94;82.43;99061.41;4995427;28;20132;-75
2022/12/11 09:00:14;;;;;;;24.75;16.38;;;;;;;0.91;82.71;99061.53;4978367;28;20405;-76
2022/12/11 09:02:40;;;;;;;28.88;15.38;;;;;;;0.89;82.26;99071.25;4961624;28;20116;-75
2022/12/11 09:05:06;;;;;;;31.17;16.10;;;;;;;0.90;82.10;99062.47;4977721;28;20047;-76
2022/12/11 09:07:31;;;;;;;25.63;14.88;;;;;;;0.88;82.27;99064.31;4998397;28;20053;-76
2022/12/11 09:09:56;;;;;;;25.88;15.73;;;;;;;0.89;82.00;99070.41;4980936;28;20092;-76
2022/12/11 09:12:20;;;;;;;24.58;13.70;;;;;;;0.90;82.35;99064.25;4999054;28;20146;-77
2022/12/11 09:14:46;;;;;;;29.58;15.77;;;;;;;0.89;82.07;99058.16;4981291;28;20111;-76
2022/12/11 09:17:11;;;;;;;27.13;15.43;;;;;;;0.89;81.71;99052.03;5000326;28;20037;-76
2022/12/11 09:19:36;;;;;;;28.00;14.45;;;;;;;0.85;82.12;99061.81;4966380;28;20045;-75
2022/12/11 09:22:01;;;;;;;30.77;15.25;;;;;;;0.84;81.76;99059.25;4980874;28;20120;-75
2022/12/11 09:24:25;;;;;;;27.05;15.80;;;;;;;0.82;81.97;99059.28;4968395;28;20064;-75
2022/12/11 09:26:51;;;;;;;25.42;14.90;;;;;;;0.81;81.65;99054.09;4983413;28;20496;-76
2022/12/11 09:29:16;;;;;;;25.52;14.90;;;;;;;0.80;82.00;99066.38;4984342;28;20498;-76
2022/12/11 09:31:42;;;;;;;23.30;13.80;;;;;;;0.82;82.31;99068.94;4965337;28;20038;-74
2022/12/11 09:34:10;;;;;;;25.75;14.77;;;;;;;0.81;82.15;99081.19;4981239;28;20044;-74
2022/12/11 09:36:38;;;;;;;27.02;13.73;;;;;;;0.82;81.86;99090.78;4997542;28;20045;-75
2022/12/11 09:39:05;;;;;;;26.70;14.52;;;;;;;0.88;82.11;99114.16;4970012;28;20068;-76
2022/12/11 09:41:46;;;;;;;27.90;14.68;;;;;;;0.84;82.19;99104.69;5001311;28;20037;-75
2022/12/11 09:44:47;;;;;;;23.83;13.88;;;;;;;0.83;81.93;99107.38;4980394;28;20053;-73
2022/12/11 09:47:21;;;;;;;26.17;13.70;;;;;;;0.78;82.27;99109.34;4998009;28;20040;-75
2022/12/11 09:49:52;;;;;;;23.73;14.10;;;;;;;0.75;81.87;99126.06;4983358;28;20048;-74
2022/12/11 09:52:33;;;;;;;22.88;13.95;;;;;;;0.77;82.03;99118.13;4981421;28;20034;-75
2022/12/11 09:55:01;;;;;;;21.42;13.20;;;;;;;0.72;82.19;99115.69;5000567;28;20041;-74
2022/12/11 09:57:47;;;;;;;20.38;12.38;;;;;;;0.70;82.04;99128.00;4993939;28;20041;-75
2022/12/11 10:00:32;;;;;;;26.30;12.17;;;;;;;0.74;81.94;99126.97;4974659;28;20512;-76
2022/12/11 10:03:18;;;;;;;22.00;11.82;;;;;;;0.77;82.22;99131.25;4995749;28;20049;-76
2022/12/11 10:06:02;;;;;;;23.90;12.57;;;;;;;0.75;82.23;99120.81;4980199;28;20107;-75
2022/12/11 10:08:55;;;;;;;18.95;12.75;;;;;;;0.76;81.96;99112.03;4980348;28;20040;-75
2022/12/11 10:12:05;;;;;;;21.23;11.45;;;;;;;0.71;82.30;99113.97;4983122;28;20034;-75
2022/12/11 10:14:41;;;;;;;23.88;13.02;;;;;;;0.65;82.21;99106.38;4946519;28;20050;-74
2022/12/11 10:17:12;;;;;;;26.00;14.15;;;;;;;0.63;82.42;99102.94;4938382;28;20135;-75
2022/12/11 10:19:39;;;;;;;25.20;13.13;;;;;;;0.61;81.90;99112.63;4955993;28;20050;-75
2022/12/11 10:22:13;;;;;;;22.80;12.88;;;;;;;0.65;82.05;99095.88;4950561;28;20052;-75
2022/12/11 10:24:48;;;;;;;18.73;12.47;;;;;;;0.66;82.08;99094.97;4891793;28;20398;-74
2022/12/11 10:27:21;;;;;;;20.33;11.90;;;;;;;0.67;82.04;99096.66;4956095;28;20307;-75
2022/12/11 10:29:58;;;;;;;23.10;14.00;;;;;;;0.64;81.87;99095.00;4939736;28;20130;-76
2022/12/11 10:32:32;;;;;;;30.92;12.90;;;;;;;0.60;82.08;99105.69;4948768;28;20447;-77
2022/12/11 10:35:04;;;;;;;24.40;13.70;;;;;;;0.60;82.11;99117.03;4953324;28;20110;-76
2022/12/11 10:37:29;;;;;;;24.33;14.00;;;;;;;0.53;81.66;99122.59;4941139;28;20198;-77
2022/12/11 10:39:55;;;;;;;22.98;13.02;;;;;;;0.51;81.92;99121.78;4956960;28;20038;-78
2022/12/11 10:42:21;;;;;;;28.05;13.73;;;;;;;0.53;81.75;99119.97;4956964;28;20054;-77
2022/12/11 10:45:01;;;;;;;25.65;11.75;;;;;;;0.58;81.82;99110.97;4942165;28;20064;-76
2022/12/11 10:47:28;;;;;;;20.25;12.40;;;;;;;0.52;82.12;99107.75;4908294;28;20045;-75
2022/12/11 10:49:59;;;;;;;23.52;14.02;;;;;;;0.54;81.89;99098.06;4933369;28;20177;-77
2022/12/11 10:52:31;;;;;;;23.38;11.90;;;;;;;0.55;82.00;99102.41;5002751;28;20046;-76
2022/12/11 10:55:16;;;;;;;27.15;13.88;;;;;;;0.53;82.07;99097.22;4982478;28;20068;-76
2022/12/11 10:57:42;;;;;;;22.63;14.13;;;;;;;0.48;81.65;99087.81;4996246;28;20038;-76
2022/12/11 11:00:29;;;;;;;21.00;12.50;;;;;;;0.53;82.12;99088.50;4984781;28;20042;-77
2022/12/11 11:02:55;;;;;;;19.42;11.85;;;;;;;0.47;81.76;99089.56;4970218;28;20045;-74
2022/12/11 11:05:47;;;;;;;24.35;13.65;;;;;;;0.52;82.04;99076.28;4980676;28;20132;-76
2022/12/11 11:08:18;;;;;;;22.60;13.18;;;;;;;0.46;81.79;99080.00;4964161;28;20496;-75
2022/12/11 11:10:56;;;;;;;21.75;12.30;;;;;;;0.45;81.75;99082.69;4999744;28;20045;-76
2022/12/11 11:13:29;;;;;;;21.30;11.93;;;;;;;0.39;81.65;99085.56;4971264;28;20115;-76
2022/12/11 11:15:59;;;;;;;23.80;13.02;;;;;;;0.31;81.80;99072.75;4963434;28;20547;-75
2022/12/11 11:18:27;;;;;;;22.67;12.68;;;;;;;0.29;81.85;99077.19;4963676;28;20033;-73
2022/12/11 11:20:52;;;;;;;22.55;13.90;;;;;;;0.26;81.68;99072.06;4979104;28;20091;-74
2022/12/11 11:23:20;;;;;;;23.20;12.63;;;;;;;0.26;81.63;99069.44;4964676;28;20057;-76
2022/12/11 11:25:55;;;;;;;26.02;14.27;;;;;;;0.25;81.82;99081.69;4951299;28;20452;-74
2022/12/11 11:28:35;;;;;;;26.45;13.48;;;;;;;0.20;81.96;99075.78;5004703;28;20041;-75
2022/12/11 11:31:07;;;;;;;24.55;13.02;;;;;;;0.13;81.86;99068.19;4980116;28;20607;-74
2022/12/11 11:33:35;;;;;;;19.10;11.55;;;;;;;0.09;81.73;99072.72;4980806;28;20488;-75
2022/12/11 11:36:05;;;;;;;25.83;13.40;;;;;;;0.11;82.14;99077.91;4948587;28;20037;-75
2022/12/11 11:38:43;;;;;;;31.40;14.48;;;;;;;0.13;82.44;99060.34;4981088;28;20045;-73